createdAt,value
2022-08-07T00:02:37.562Z,100955.41
2022-08-07T00:05:14.280Z,100960.97
2022-08-07T00:08:05.024Z,100969.44
2022-08-07T00:10:47.917Z,100966.09
2022-08-07T00:13:30.692Z,100959.16
2022-08-07T00:16:01.203Z,100939.84
2022-08-07T00:18:36.896Z,100953.28
2022-08-07T00:21:57.361Z,100948.03
2022-08-07T00:24:18.740Z,100946.22
2022-08-07T00:27:09.461Z,100954.28
2022-08-07T00:29:57.838Z,100915.16
2022-08-07T00:32:41.682Z,100952.69
2022-08-07T00:35:15.044Z,100936.84
2022-08-07T00:37:48.297Z,100941.31
2022-08-07T00:40:39.638Z,100952.56
2022-08-07T00:44:01.339Z,100941.16
2022-08-07T00:46:26.387Z,100945.53
2022-08-07T00:48:56.187Z,100957.66
2022-08-07T00:51:57.019Z,100909.03
2022-08-07T00:54:37.811Z,100946.13
2022-08-07T00:57:13.551Z,100946.13
2022-08-07T00:59:52.866Z,100952.56
2022-08-07T01:02:28.252Z,100937.66
2022-08-07T01:05:01.264Z,100942.06
2022-08-07T01:07:33.044Z,100948.56
2022-08-07T01:10:06.350Z,100947.81
2022-08-07T01:12:53.091Z,100944.03
2022-08-07T01:15:35.782Z,100945.66
2022-08-07T01:18:11.056Z,100951.84
2022-08-07T01:20:57.372Z,100942.28
2022-08-07T01:23:36.422Z,100939.34
2022-08-07T01:26:11.979Z,100957.19
2022-08-07T01:28:45.851Z,100952.88
2022-08-07T01:31:15.503Z,100958.75
2022-08-07T01:33:53.515Z,100947.00
2022-08-07T01:36:33.824Z,100963.13
2022-08-07T01:39:01.975Z,100961.31
2022-08-07T01:42:07.205Z,100960.72
2022-08-07T01:44:27.963Z,100969.56
2022-08-07T01:46:55.475Z,100962.53
2022-08-07T01:49:23.330Z,100960.31
2022-08-07T01:52:02.472Z,100969.31
2022-08-07T01:54:37.601Z,100968.97
2022-08-07T01:57:09.659Z,100960.63
2022-08-07T02:00:00.842Z,100959.72
2022-08-07T02:03:18.938Z,100962.88
2022-08-07T02:05:48.380Z,100952.13
2022-08-07T02:08:26.782Z,100953.56
2022-08-07T02:10:59.629Z,100936.25
2022-08-07T02:13:56.347Z,100955.69
2022-08-07T02:16:19.782Z,100886.59
2022-08-07T02:18:53.095Z,100944.13
2022-08-07T02:21:24.443Z,100945.84
2022-08-07T02:23:54.143Z,100942.03
2022-08-07T02:26:32.395Z,100940.06
2022-08-07T02:29:13.745Z,100913.09
2022-08-07T02:31:44.624Z,100940.66
2022-08-07T02:34:19.262Z,100926.25
2022-08-07T02:36:48.722Z,100927.22
2022-08-07T02:39:42.908Z,100930.94
2022-08-07T02:42:10.020Z,100916.41
2022-08-07T02:44:47.795Z,100926.50
2022-08-07T02:47:19.502Z,100906.75
2022-08-07T02:49:57.777Z,100921.69
2022-08-07T02:52:34.702Z,100927.38
2022-08-07T02:55:27.498Z,100911.41
2022-08-07T02:58:03.162Z,100919.19
2022-08-07T03:00:39.202Z,100911.19
2022-08-07T03:03:13.488Z,100879.75
2022-08-07T03:05:44.123Z,100907.53
2022-08-07T03:08:14.240Z,100914.47
2022-08-07T03:10:46.466Z,100913.59
2022-08-07T03:13:19.536Z,100916.22
2022-08-07T03:15:56.491Z,100885.31
2022-08-07T03:18:34.999Z,100914.13
2022-08-07T03:21:08.603Z,100849.59
2022-08-07T03:24:19.761Z,100911.16
2022-08-07T03:26:33.340Z,100912.97
2022-08-07T03:29:10.985Z,100905.31
2022-08-07T03:31:46.607Z,100903.75
2022-08-07T03:34:22.308Z,100914.00
2022-08-07T03:36:53.813Z,100917.59
2022-08-07T03:39:46.308Z,100914.38
2022-08-07T03:42:13.570Z,100918.84
2022-08-07T03:44:41.707Z,100923.59
2022-08-07T03:47:15.786Z,100888.78
2022-08-07T03:49:51.873Z,100914.00
2022-08-07T03:52:27.545Z,100921.06
2022-08-07T03:55:07.816Z,100923.25
2022-08-07T03:58:32.706Z,100920.72
2022-08-07T04:00:33.532Z,100925.97
2022-08-07T04:03:04.684Z,100924.09
2022-08-07T04:05:40.212Z,100921.28
2022-08-07T04:08:16.107Z,100891.59
2022-08-07T04:10:54.712Z,100886.16
2022-08-07T04:14:09.273Z,100931.97
2022-08-07T04:16:31.093Z,100936.28
2022-08-07T04:19:12.681Z,100933.44
2022-08-07T04:21:59.068Z,100903.94
2022-08-07T04:24:39.236Z,100940.78
2022-08-07T04:27:20.278Z,100933.22
2022-08-07T04:30:01.786Z,100927.13
2022-08-07T04:32:34.445Z,100930.16
2022-08-07T04:35:11.288Z,100933.44
2022-08-07T04:38:03.256Z,100930.16
2022-08-07T04:40:34.189Z,100946.25
2022-08-07T04:43:03.584Z,100944.56
2022-08-07T04:46:12.493Z,100944.16
2022-08-07T04:49:02.341Z,100951.38
2022-08-07T04:52:04.495Z,100968.09
2022-08-07T04:54:36.764Z,100966.94
2022-08-07T04:58:09.809Z,100957.78
2022-08-07T05:00:49.455Z,100938.53
2022-08-07T05:04:00.317Z,100954.81
2022-08-07T05:06:43.748Z,100954.44
2022-08-07T05:09:45.824Z,100950.13
2022-08-07T05:12:26.994Z,100956.31
2022-08-07T05:15:23.449Z,100949.06
2022-08-07T05:18:00.569Z,100963.72
2022-08-07T05:20:35.258Z,100964.72
2022-08-07T05:23:15.690Z,100964.78
2022-08-07T05:26:10.597Z,100974.78
2022-08-07T05:28:58.510Z,100969.94
2022-08-07T05:31:34.972Z,100963.88
2022-08-07T05:34:11.067Z,100940.25
2022-08-07T05:36:52.687Z,100969.50
2022-08-07T05:40:13.365Z,100950.53
2022-08-07T05:42:34.507Z,100965.34
2022-08-07T05:45:14.290Z,100975.56
2022-08-07T05:48:02.191Z,100985.47
2022-08-07T05:50:31.982Z,100984.94
2022-08-07T05:53:04.067Z,100980.19
2022-08-07T05:56:03.212Z,100989.44
2022-08-07T05:58:30.246Z,100990.38
2022-08-07T06:01:11.318Z,100985.81
2022-08-07T06:03:53.950Z,100989.88
2022-08-07T06:06:29.864Z,100989.19
2022-08-07T06:09:08.819Z,100985.81
2022-08-07T06:11:38.292Z,100993.13
2022-08-07T06:14:11.988Z,100986.34
2022-08-07T06:16:56.241Z,101000.22
2022-08-07T06:19:51.844Z,100984.75
2022-08-07T06:22:23.493Z,100960.31
2022-08-07T06:24:58.453Z,100966.81
2022-08-07T06:27:44.403Z,100994.25
2022-08-07T06:30:35.146Z,100996.69
2022-08-07T06:33:05.104Z,101002.13
2022-08-07T06:35:45.391Z,100990.16
2022-08-07T06:38:20.037Z,100987.84
2022-08-07T06:40:52.842Z,100995.59
2022-08-07T06:43:23.792Z,100990.75
2022-08-07T06:45:51.736Z,100990.72
2022-08-07T06:48:24.846Z,100987.84
2022-08-07T06:50:59.339Z,100985.22
2022-08-07T06:55:29.550Z,100994.56
2022-08-07T06:56:49.474Z,100986.97
2022-08-07T07:00:13.058Z,100996.66
2022-08-07T07:02:53.752Z,100997.59
2022-08-07T07:06:04.972Z,100987.63
2022-08-07T07:08:18.635Z,100978.88
2022-08-07T07:10:56.438Z,100976.72
2022-08-07T07:13:58.248Z,100985.59
2022-08-07T07:16:33.914Z,100983.53
2022-08-07T07:19:34.038Z,100983.66
2022-08-07T07:22:05.029Z,100947.47
2022-08-07T07:24:56.678Z,100984.16
2022-08-07T07:27:35.658Z,100981.00
2022-08-07T07:30:38.129Z,100977.16
2022-08-07T07:33:11.526Z,100977.66
2022-08-07T07:35:54.110Z,100972.38
2022-08-07T07:38:31.399Z,100976.72
2022-08-07T07:41:02.720Z,100978.41
2022-08-07T07:43:47.829Z,100974.53
2022-08-07T07:46:38.487Z,100966.41
2022-08-07T07:50:33.453Z,100973.72
2022-08-07T07:52:06.961Z,100922.00
2022-08-07T07:54:50.459Z,100968.69
2022-08-07T07:57:51.539Z,100955.13
2022-08-07T08:00:09.682Z,100963.81
2022-08-07T08:02:38.992Z,100949.13
2022-08-07T08:05:27.818Z,100947.97
2022-08-07T08:08:34.602Z,100962.47
2022-08-07T08:11:00.775Z,100956.38
2022-08-07T08:13:36.745Z,100959.31
2022-08-07T08:16:25.155Z,100955.47
2022-08-07T08:18:56.759Z,100922.22
2022-08-07T08:21:55.993Z,100947.22
2022-08-07T08:25:18.821Z,100948.50
2022-08-07T08:27:56.669Z,100915.41
2022-08-07T08:30:27.208Z,100944.81
2022-08-07T08:32:58.756Z,100952.72
2022-08-07T08:35:39.122Z,100949.31
2022-08-07T08:38:17.140Z,100944.00
2022-08-07T08:40:56.066Z,100943.06
2022-08-07T08:43:56.042Z,100947.50
2022-08-07T08:46:49.870Z,100952.81
2022-08-07T08:50:05.193Z,100951.53
2022-08-07T08:52:54.177Z,100944.28
2022-08-07T08:55:53.434Z,100942.78
2022-08-07T08:58:28.779Z,100934.72
2022-08-07T09:01:15.938Z,100948.69
2022-08-07T09:03:55.700Z,100914.31
2022-08-07T09:06:52.865Z,100932.69
2022-08-07T09:09:56.908Z,100916.78
2022-08-07T09:12:53.034Z,100924.31
2022-08-07T09:16:25.154Z,100929.91
2022-08-07T09:18:47.342Z,100868.16
2022-08-07T09:21:57.838Z,100930.31
2022-08-07T09:24:33.365Z,100892.97
2022-08-07T09:27:23.291Z,100912.88
2022-08-07T09:30:04.598Z,100923.06
2022-08-07T09:32:47.414Z,100912.28
2022-08-07T09:36:00.843Z,100909.91
2022-08-07T09:38:53.445Z,100913.34
2022-08-07T09:42:05.991Z,100915.13
2022-08-07T09:47:52.125Z,100906.53
2022-08-07T09:48:11.564Z,100897.56
2022-08-07T09:52:09.229Z,100894.44
2022-08-07T09:54:03.801Z,100885.00
2022-08-07T09:56:53.270Z,100876.84
2022-08-07T10:00:01.452Z,100831.19
2022-08-07T10:02:55.468Z,100866.41
2022-08-07T10:06:05.471Z,100868.00
2022-08-07T10:08:58.120Z,100866.84
2022-08-07T10:12:00.994Z,100864.50
2022-08-07T10:14:54.222Z,100847.75
2022-08-07T10:18:01.027Z,100862.38
2022-08-07T10:20:50.321Z,100842.75
2022-08-07T10:24:06.304Z,100853.88
2022-08-07T10:26:31.377Z,100860.75
2022-08-07T10:29:16.768Z,100822.47
2022-08-07T10:32:36.979Z,100848.34
2022-08-07T10:35:25.820Z,100830.75
2022-08-07T10:38:36.102Z,100835.19
2022-08-07T10:41:51.470Z,100836.94
2022-08-07T10:44:54.548Z,100828.78
2022-08-07T10:47:52.711Z,100825.91
2022-08-07T10:50:32.348Z,100822.69
2022-08-07T10:53:11.580Z,100818.53
2022-08-07T10:55:50.718Z,100823.72
2022-08-07T10:59:08.715Z,100828.19
2022-08-07T11:02:33.256Z,100818.25
2022-08-07T11:05:19.599Z,100811.16
2022-08-07T11:08:06.967Z,100806.28
2022-08-07T11:11:00.449Z,100798.06
2022-08-07T11:14:46.354Z,100794.97
2022-08-07T11:17:07.236Z,100777.13
2022-08-07T11:19:55.584Z,100792.97
2022-08-07T11:22:37.114Z,100791.72
2022-08-07T11:25:48.225Z,100787.63
2022-08-07T11:28:55.267Z,100776.78
2022-08-07T11:31:45.103Z,100783.41
2022-08-07T11:34:35.168Z,100772.03
2022-08-07T11:37:20.176Z,100778.75
2022-08-07T11:40:03.919Z,100777.28
2022-08-07T11:42:55.857Z,100778.03
2022-08-07T11:45:36.484Z,100769.88
2022-08-07T11:48:35.762Z,100767.13
2022-08-07T11:51:50.779Z,100758.00
2022-08-07T11:55:01.268Z,100764.47
2022-08-07T11:58:00.793Z,100763.56
2022-08-07T12:01:02.670Z,100758.41
2022-08-07T12:04:09.147Z,100751.78
2022-08-07T12:07:07.888Z,100724.03
2022-08-07T12:09:51.629Z,100744.31
2022-08-07T12:12:28.711Z,100737.72
2022-08-07T12:15:08.157Z,100742.91
2022-08-07T12:17:58.497Z,100714.25
2022-08-07T12:20:58.245Z,100737.31
2022-08-07T12:24:05.957Z,100745.69
2022-08-07T12:26:59.154Z,100731.72
2022-08-07T12:29:47.694Z,100667.88
2022-08-07T12:33:00.695Z,100703.31
2022-08-07T12:35:36.252Z,100730.94
2022-08-07T12:38:11.679Z,100726.50
2022-08-07T12:41:10.145Z,100728.41
2022-08-07T12:44:02.038Z,100717.91
2022-08-07T12:46:50.784Z,100713.44
2022-08-07T12:49:53.296Z,100726.28
2022-08-07T12:52:46.678Z,100710.72
2022-08-07T12:55:41.370Z,100715.28
2022-08-07T12:58:20.139Z,100704.44
2022-08-07T13:01:27.941Z,100705.97
2022-08-07T13:04:34.010Z,100667.97
2022-08-07T13:08:14.184Z,100701.16
2022-08-07T13:10:51.540Z,100700.44
2022-08-07T13:14:02.515Z,100698.72
2022-08-07T13:16:55.745Z,100699.28
2022-08-07T13:19:50.728Z,100689.78
2022-08-07T13:22:52.656Z,100696.19
2022-08-07T13:25:50.737Z,100652.81
2022-08-07T13:28:34.255Z,100684.59
2022-08-07T13:31:25.501Z,100685.19
2022-08-07T13:34:32.973Z,100674.06
2022-08-07T13:37:20.124Z,100668.66
2022-08-07T13:40:35.530Z,100664.88
2022-08-07T13:43:11.989Z,100658.75
2022-08-07T13:46:10.948Z,100666.09
2022-08-07T13:48:38.662Z,100652.16
2022-08-07T13:51:27.027Z,100667.06
2022-08-07T13:54:07.944Z,100635.13
2022-08-07T13:56:41.197Z,100662.34
2022-08-07T13:59:27.163Z,100652.16
2022-08-07T14:02:10.809Z,100620.22
2022-08-07T14:04:55.085Z,100634.38
2022-08-07T14:08:00.667Z,100639.84
2022-08-07T14:10:42.315Z,100644.91
2022-08-07T14:13:18.822Z,100622.94
2022-08-07T14:16:17.119Z,100636.38
2022-08-07T14:18:57.647Z,100612.13
2022-08-07T14:22:03.205Z,100624.09
2022-08-07T14:24:53.509Z,100630.16
2022-08-07T14:28:12.330Z,100622.53
2022-08-07T14:30:32.890Z,100626.94
2022-08-07T14:33:05.360Z,100619.22
2022-08-07T14:35:57.476Z,100625.72
2022-08-07T14:38:30.784Z,100615.19
2022-08-07T14:41:14.659Z,100610.84
2022-08-07T14:43:59.432Z,100615.50
2022-08-07T14:46:36.404Z,100600.06
2022-08-07T14:49:56.133Z,100618.25
2022-08-07T14:54:49.345Z,100618.19
2022-08-07T14:57:25.443Z,100605.69
2022-08-07T15:00:30.318Z,100602.13
2022-08-07T15:03:16.457Z,100616.38
2022-08-07T15:06:03.922Z,100617.31
2022-08-07T15:08:50.007Z,100615.91
2022-08-07T15:14:22.899Z,100609.06
2022-08-07T15:17:12.635Z,100591.56
2022-08-07T15:26:20.633Z,100588.50
2022-08-07T15:31:58.075Z,100577.84
2022-08-07T15:40:34.838Z,100583.84
2022-08-07T15:46:32.445Z,100517.44
2022-08-07T15:49:14.622Z,100590.41
2022-08-07T15:54:39.729Z,100567.47
2022-08-07T15:57:39.241Z,100548.16
2022-08-07T16:00:04.450Z,100571.16
2022-08-07T16:02:40.806Z,100567.84
2022-08-07T16:05:23.134Z,100575.50
2022-08-07T16:08:32.212Z,100559.72
2022-08-07T16:11:25.375Z,100563.38
2022-08-07T16:14:03.124Z,100555.44
2022-08-07T16:17:02.849Z,100547.16
2022-08-07T16:20:33.155Z,100557.13
2022-08-07T16:23:05.365Z,100556.53
2022-08-07T16:25:54.299Z,100546.06
2022-08-07T16:30:07.091Z,100559.16
2022-08-07T16:32:01.541Z,100561.44
2022-08-07T16:34:37.595Z,100560.28
2022-08-07T16:38:02.763Z,100560.84
2022-08-07T16:40:51.196Z,100562.50
2022-08-07T16:44:40.534Z,100561.81
2022-08-07T16:47:51.394Z,100560.41
2022-08-07T16:51:20.975Z,100529.66
2022-08-07T16:54:02.837Z,100553.34
2022-08-07T16:56:50.214Z,100520.44
2022-08-07T16:59:46.722Z,100564.31
2022-08-07T17:02:52.249Z,100560.91
2022-08-07T17:06:28.357Z,100568.88
2022-08-07T17:09:09.485Z,100556.94
2022-08-07T17:12:05.053Z,100553.97
2022-08-07T17:14:47.230Z,100530.69
2022-08-07T17:17:47.363Z,100564.78
2022-08-07T17:20:32.810Z,100563.97
2022-08-07T17:23:36.531Z,100549.75
2022-08-07T17:26:05.981Z,100561.97
2022-08-07T17:29:07.874Z,100556.78
2022-08-07T17:31:44.239Z,100543.03
2022-08-07T17:34:57.106Z,100564.03
2022-08-07T17:38:05.974Z,100568.88
2022-08-07T17:42:00.909Z,100564.84
2022-08-07T17:44:41.385Z,100541.22
2022-08-07T17:48:12.668Z,100556.91
2022-08-07T17:51:01.698Z,100567.56
2022-08-07T17:54:02.434Z,100565.81
2022-08-07T17:56:52.495Z,100557.34
2022-08-07T17:59:35.893Z,100578.38
2022-08-07T18:02:31.425Z,100586.31
2022-08-07T18:05:24.658Z,100578.16
2022-08-07T18:08:25.689Z,100576.44
2022-08-07T18:12:08.389Z,100572.50
2022-08-07T18:14:23.934Z,100577.44
2022-08-07T18:17:01.439Z,100578.63
2022-08-07T18:21:02.499Z,100589.25
2022-08-07T18:23:43.481Z,100596.22
2022-08-07T18:26:26.366Z,100552.34
2022-08-07T18:30:04.685Z,100594.56
2022-08-07T18:32:13.248Z,100592.06
2022-08-07T18:35:15.832Z,100594.47
2022-08-07T18:38:55.880Z,100582.72
2022-08-07T18:41:20.574Z,100571.84
2022-08-07T18:44:27.439Z,100606.28
2022-08-07T18:47:06.196Z,100607.88
2022-08-07T18:50:39.119Z,100614.31
2022-08-07T18:53:17.471Z,100607.19
2022-08-07T18:56:31.561Z,100622.91
2022-08-07T18:59:46.988Z,100631.56
2022-08-07T19:02:42.702Z,100629.06
2022-08-07T19:05:16.235Z,100631.72
2022-08-07T19:08:13.967Z,100618.50
2022-08-07T19:10:51.697Z,100625.34
2022-08-07T19:13:51.704Z,100617.16
2022-08-07T19:17:01.003Z,100570.81
2022-08-07T19:19:58.586Z,100645.94
2022-08-07T19:22:48.248Z,100629.81
2022-08-07T19:26:24.368Z,100658.75
2022-08-07T19:28:58.312Z,100668.41
2022-08-07T19:31:59.769Z,100653.81
2022-08-07T19:34:34.145Z,100664.47
2022-08-07T19:37:10.194Z,100672.97
2022-08-07T19:39:57.724Z,100664.63
2022-08-07T19:42:40.259Z,100682.94
2022-08-07T19:46:05.909Z,100626.56
2022-08-07T19:48:42.207Z,100670.28
2022-08-07T19:51:20.480Z,100671.31
2022-08-07T19:54:32.447Z,100682.75
2022-08-07T19:57:51.930Z,100683.09
2022-08-07T19:59:46.465Z,100695.16
2022-08-07T20:02:33.569Z,100678.75
2022-08-07T20:05:10.129Z,100658.94
2022-08-07T20:07:48.083Z,100689.91
2022-08-07T20:10:52.377Z,100696.13
2022-08-07T20:13:33.799Z,100699.28
2022-08-07T20:16:03.962Z,100708.53
2022-08-07T20:18:35.332Z,100712.69
2022-08-07T20:21:14.469Z,100701.78
2022-08-07T20:23:57.973Z,100697.63
2022-08-07T20:26:38.626Z,100706.38
2022-08-07T20:29:48.430Z,100704.72
2022-08-07T20:32:40.319Z,100711.47
2022-08-07T20:35:16.285Z,100703.34
2022-08-07T20:37:59.665Z,100711.03
2022-08-07T20:40:33.852Z,100712.25
2022-08-07T20:43:14.462Z,100673.19
2022-08-07T20:46:25.958Z,100692.91
2022-08-07T20:49:55.186Z,100703.50
2022-08-07T20:51:35.761Z,100687.69
2022-08-07T20:54:29.946Z,100707.75
2022-08-07T20:57:11.057Z,100701.41
2022-08-07T21:00:06.501Z,100691.91
2022-08-07T21:02:59.134Z,100687.31
2022-08-07T21:05:59.170Z,100687.41
2022-08-07T21:09:07.564Z,100693.25
2022-08-07T21:11:53.310Z,100687.69
2022-08-07T21:14:48.374Z,100696.09
2022-08-07T21:18:02.841Z,100694.88
2022-08-07T21:20:30.194Z,100676.13
2022-08-07T21:23:08.786Z,100687.16
2022-08-07T21:25:45.026Z,100685.22
2022-08-07T21:28:54.271Z,100682.66
2022-08-07T21:32:42.363Z,100681.66
2022-08-07T21:35:02.260Z,100680.88
2022-08-07T21:37:57.758Z,100681.09
2022-08-07T21:40:51.182Z,100670.97
2022-08-07T21:43:25.407Z,100669.88
2022-08-07T21:46:32.411Z,100665.69
2022-08-07T21:50:02.114Z,100660.91
2022-08-07T21:52:54.395Z,100672.97
2022-08-07T21:55:32.511Z,100651.31
2022-08-07T21:58:32.301Z,100666.19
2022-08-07T22:01:14.074Z,100663.72
2022-08-07T22:04:10.408Z,100665.25
2022-08-07T22:07:07.752Z,100674.56
2022-08-07T22:09:53.863Z,100653.44
2022-08-07T22:12:57.379Z,100690.28
2022-08-07T22:16:43.304Z,100659.38
2022-08-07T22:18:49.172Z,100690.97
2022-08-07T22:21:21.258Z,100682.47
2022-08-07T22:23:57.731Z,100685.97
2022-08-07T22:26:57.313Z,100688.91
2022-08-07T22:29:52.862Z,100657.72
2022-08-07T22:32:50.710Z,100693.75
2022-08-07T22:35:18.265Z,100683.03
2022-08-07T22:38:03.555Z,100668.69
2022-08-07T22:41:03.891Z,100693.88
2022-08-07T22:44:13.885Z,100697.47
2022-08-07T22:47:09.427Z,100698.59
2022-08-07T22:49:54.125Z,100699.00
2022-08-07T22:52:37.570Z,100668.38
2022-08-07T22:55:22.554Z,100694.78
2022-08-07T22:57:51.104Z,100707.78
2022-08-07T23:00:28.378Z,100699.34
2022-08-07T23:03:58.418Z,100681.66
2022-08-07T23:06:29.740Z,100668.16
2022-08-07T23:10:04.562Z,100704.69
2022-08-07T23:12:57.187Z,100699.41
2022-08-07T23:16:06.912Z,100702.25
2022-08-07T23:18:33.757Z,100708.78
2022-08-07T23:21:16.180Z,100702.22
2022-08-07T23:24:04.559Z,100697.44
2022-08-07T23:26:50.575Z,100705.06
2022-08-07T23:30:39.591Z,100682.69
2022-08-07T23:34:21.275Z,100693.75
2022-08-07T23:36:04.491Z,100700.78
2022-08-07T23:38:55.062Z,100701.84
2022-08-07T23:42:01.398Z,100690.38
2022-08-07T23:44:58.170Z,100697.88
2022-08-07T23:47:47.923Z,100710.47
2022-08-07T23:50:33.956Z,100698.69
2022-08-07T23:53:51.091Z,100677.59
2022-08-07T23:56:37.970Z,100710.72
